createdAt,value
2023-02-24T00:00:38.609Z,6.58
2023-02-24T00:03:11.569Z,6.56
2023-02-24T00:05:42.931Z,6.53
2023-02-24T00:08:11.446Z,6.64
2023-02-24T00:10:41.789Z,6.63
2023-02-24T00:13:12.266Z,6.52
2023-02-24T00:15:40.506Z,6.33
2023-02-24T00:18:08.589Z,6.22
2023-02-24T00:20:37.475Z,6.17
2023-02-24T00:23:05.671Z,6.16
2023-02-24T00:25:33.797Z,6.17
2023-02-24T00:28:03.455Z,6.10
2023-02-24T00:30:33.096Z,5.91
2023-02-24T00:33:02.945Z,6.04
2023-02-24T00:35:31.039Z,6.10
2023-02-24T00:37:59.651Z,6.06
2023-02-24T00:40:30.427Z,6.09
2023-02-24T00:42:58.658Z,6.01
2023-02-24T00:45:31.021Z,5.86
2023-02-24T00:47:59.464Z,5.88
2023-02-24T00:50:27.606Z,5.92
2023-02-24T00:52:55.733Z,6.00
2023-02-24T00:55:24.096Z,5.97
2023-02-24T00:57:52.160Z,5.79
2023-02-24T01:00:23.472Z,5.92
2023-02-24T01:02:53.012Z,5.87
2023-02-24T01:05:21.417Z,5.64
2023-02-24T01:07:49.524Z,5.86
2023-02-24T01:10:18.489Z,5.80
2023-02-24T01:12:51.239Z,5.74
2023-02-24T01:15:21.849Z,5.63
2023-02-24T01:17:50.013Z,5.77
2023-02-24T01:20:19.900Z,5.74
2023-02-24T01:22:50.550Z,5.79
2023-02-24T01:25:20.537Z,5.60
2023-02-24T01:27:49.104Z,5.21
2023-02-24T01:30:18.535Z,5.51
2023-02-24T01:32:48.220Z,5.45
2023-02-24T01:35:16.971Z,5.31
2023-02-24T01:37:46.558Z,5.32
2023-02-24T01:40:21.849Z,5.35
2023-02-24T01:42:50.838Z,5.14
2023-02-24T01:45:22.867Z,5.20
2023-02-24T01:47:54.209Z,5.41
2023-02-24T01:50:26.269Z,5.48
2023-02-24T01:52:58.979Z,5.49
2023-02-24T01:55:32.224Z,5.52
2023-02-24T01:58:06.043Z,5.46
2023-02-24T02:00:38.406Z,5.56
2023-02-24T02:03:15.721Z,5.56
2023-02-24T02:05:45.384Z,5.53
2023-02-24T02:08:16.745Z,5.34
2023-02-24T02:10:45.516Z,5.44
2023-02-24T02:13:21.158Z,5.44
2023-02-24T02:16:13.841Z,5.24
2023-02-24T02:18:56.392Z,5.35
2023-02-24T02:22:03.992Z,5.49
2023-02-24T02:24:53.908Z,5.43
2023-02-24T02:27:45.260Z,5.57
2023-02-24T02:30:48.032Z,5.51
2023-02-24T02:34:00.631Z,5.29
2023-02-24T02:36:38.842Z,5.37
2023-02-24T02:39:14.818Z,5.45
2023-02-24T02:41:51.055Z,5.19
2023-02-24T02:44:25.381Z,5.54
2023-02-24T02:47:01.406Z,5.26
2023-02-24T02:49:35.566Z,5.35
2023-02-24T02:52:13.844Z,5.40
2023-02-24T02:54:49.888Z,5.45
2023-02-24T02:57:21.841Z,5.35
2023-02-24T02:59:54.837Z,4.72
2023-02-24T03:02:29.843Z,5.17
2023-02-24T03:05:02.199Z,5.31
2023-02-24T03:07:37.674Z,5.33
2023-02-24T03:10:11.429Z,5.33
2023-02-24T03:12:42.076Z,5.39
2023-02-24T03:15:14.274Z,5.38
2023-02-24T03:17:46.524Z,4.41
2023-02-24T03:20:22.774Z,5.50
2023-02-24T03:22:57.658Z,5.37
2023-02-24T03:25:30.299Z,5.49
2023-02-24T03:28:06.089Z,5.47
2023-02-24T03:30:42.515Z,4.43
2023-02-24T03:33:18.315Z,5.47
2023-02-24T03:35:46.746Z,5.44
2023-02-24T03:38:16.263Z,5.45
2023-02-24T03:40:44.571Z,5.47
2023-02-24T03:43:17.695Z,5.45
2023-02-24T03:45:46.801Z,5.34
2023-02-24T03:48:16.156Z,5.45
2023-02-24T03:50:45.104Z,5.61
2023-02-24T03:53:31.777Z,5.65
2023-02-24T03:56:11.122Z,5.35
2023-02-24T03:58:53.766Z,5.49
2023-02-24T04:01:31.128Z,5.36
2023-02-24T04:04:04.804Z,5.30
2023-02-24T04:06:41.948Z,5.28
2023-02-24T04:09:20.313Z,5.28
2023-02-24T04:11:56.403Z,5.28
2023-02-24T04:14:30.824Z,5.27
2023-02-24T04:17:04.081Z,5.02
2023-02-24T04:19:38.553Z,5.22
2023-02-24T04:22:07.980Z,5.19
2023-02-24T04:24:40.754Z,5.20
2023-02-24T04:27:13.193Z,5.28
2023-02-24T04:29:47.366Z,5.28
2023-02-24T04:32:18.893Z,5.26
2023-02-24T04:34:47.187Z,5.29
2023-02-24T04:37:15.418Z,5.20
2023-02-24T04:39:46.211Z,5.12
2023-02-24T04:42:14.467Z,5.16
2023-02-24T04:44:42.970Z,4.72
2023-02-24T04:47:12.719Z,5.29
2023-02-24T04:49:41.605Z,5.24
2023-02-24T04:52:10.535Z,5.17
2023-02-24T04:54:39.274Z,5.32
2023-02-24T04:57:10.728Z,5.20
2023-02-24T04:59:39.050Z,5.19
2023-02-24T05:02:07.251Z,5.05
2023-02-24T05:04:39.023Z,4.16
2023-02-24T05:07:07.253Z,5.11
2023-02-24T05:09:35.483Z,5.08
2023-02-24T05:12:05.307Z,5.10
2023-02-24T05:14:34.943Z,5.15
2023-02-24T05:17:03.203Z,5.05
2023-02-24T05:19:48.485Z,5.05
2023-02-24T05:22:17.843Z,5.04
2023-02-24T05:24:48.143Z,4.94
2023-02-24T05:27:17.476Z,5.05
2023-02-24T05:29:47.600Z,5.11
2023-02-24T05:32:17.031Z,5.10
2023-02-24T05:34:45.353Z,5.11
2023-02-24T05:37:16.785Z,5.06
2023-02-24T05:39:45.144Z,4.95
2023-02-24T05:42:13.484Z,4.89
2023-02-24T05:44:41.910Z,4.85
2023-02-24T05:47:11.871Z,5.02
2023-02-24T05:49:40.274Z,5.03
2023-02-24T05:52:10.202Z,5.00
2023-02-24T05:54:40.617Z,4.81
2023-02-24T05:57:12.193Z,4.88
2023-02-24T05:59:41.176Z,4.58
2023-02-24T06:02:13.212Z,4.77
2023-02-24T06:04:51.467Z,4.77
2023-02-24T06:07:24.958Z,4.78
2023-02-24T06:09:56.619Z,4.77
2023-02-24T06:12:27.754Z,4.76
2023-02-24T06:14:55.883Z,4.73
2023-02-24T06:19:52.255Z,4.75
2023-02-24T06:22:22.924Z,4.73
2023-02-24T06:24:51.225Z,4.76
2023-02-24T06:27:21.847Z,4.78
2023-02-24T06:29:52.193Z,4.16
2023-02-24T06:32:21.536Z,4.88
2023-02-24T06:34:52.534Z,4.96
2023-02-24T06:37:21.084Z,4.81
2023-02-24T06:39:49.269Z,4.96
2023-02-24T06:42:17.367Z,5.19
2023-02-24T06:44:45.405Z,5.18
2023-02-24T06:47:18.094Z,5.18
2023-02-24T06:49:46.421Z,5.09
2023-02-24T06:52:19.199Z,5.32
2023-02-24T06:54:49.688Z,5.24
2023-02-24T06:57:18.024Z,5.31
2023-02-24T06:59:46.525Z,5.26
2023-02-24T07:02:14.641Z,5.32
2023-02-24T07:04:44.835Z,5.40
2023-02-24T07:07:14.851Z,5.44
2023-02-24T07:09:45.561Z,5.54
2023-02-24T07:12:15.742Z,5.54
2023-02-24T07:14:44.176Z,5.54
2023-02-24T07:17:14.891Z,5.67
2023-02-24T07:19:44.285Z,5.68
2023-02-24T07:22:14.836Z,5.59
2023-02-24T07:24:46.503Z,5.59
2023-02-24T07:27:22.554Z,5.61
2023-02-24T07:29:53.123Z,5.54
2023-02-24T07:32:22.884Z,5.64
2023-02-24T07:34:51.250Z,5.71
2023-02-24T07:37:20.756Z,5.74
2023-02-24T07:39:50.455Z,5.78
2023-02-24T07:42:18.611Z,5.94
2023-02-24T07:44:49.363Z,5.42
2023-02-24T07:47:17.676Z,5.87
2023-02-24T07:49:45.930Z,5.78
2023-02-24T07:52:14.336Z,5.67
2023-02-24T07:54:42.459Z,6.55
2023-02-24T07:57:14.382Z,6.77
2023-02-24T07:59:47.679Z,6.99
2023-02-24T08:02:16.599Z,7.11
2023-02-24T08:04:50.480Z,7.38
2023-02-24T08:07:25.019Z,7.55
2023-02-24T08:10:24.346Z,7.61
2023-02-24T08:12:55.740Z,8.03
2023-02-24T08:15:26.153Z,8.25
2023-02-24T08:17:59.619Z,8.43
2023-02-24T08:20:30.097Z,8.49
2023-02-24T08:22:58.457Z,8.69
2023-02-24T08:25:35.841Z,8.34
2023-02-24T08:28:09.619Z,8.86
2023-02-24T08:30:40.964Z,8.48
2023-02-24T08:33:11.210Z,8.98
2023-02-24T08:35:45.073Z,8.50
2023-02-24T08:38:16.590Z,9.12
2023-02-24T08:40:55.160Z,9.08
2023-02-24T08:43:34.147Z,9.08
2023-02-24T08:46:12.750Z,8.95
2023-02-24T08:48:43.490Z,8.60
2023-02-24T08:51:17.942Z,9.35
2023-02-24T08:53:47.392Z,9.59
2023-02-24T08:56:24.370Z,9.52
2023-02-24T08:58:58.335Z,9.68
2023-02-24T09:01:34.767Z,9.65
2023-02-24T09:04:05.651Z,9.73
2023-02-24T09:06:40.937Z,9.82
2023-02-24T09:09:18.824Z,9.86
2023-02-24T09:11:49.524Z,9.87
2023-02-24T09:14:28.959Z,9.98
2023-02-24T09:17:06.256Z,10.12
2023-02-24T09:20:02.176Z,10.31
2023-02-24T09:22:31.712Z,10.65
2023-02-24T09:25:24.152Z,10.87
2023-02-24T09:27:55.854Z,10.84
2023-02-24T09:30:38.137Z,10.79
2023-02-24T09:33:18.097Z,10.74
2023-02-24T09:35:48.812Z,10.66
2023-02-24T09:38:20.223Z,10.73
2023-02-24T09:40:50.848Z,10.85
2023-02-24T09:43:22.093Z,10.86
2023-02-24T09:46:14.718Z,10.97
2023-02-24T09:48:54.492Z,11.07
2023-02-24T09:51:29.297Z,11.14
2023-02-24T09:54:02.065Z,10.21
2023-02-24T09:56:42.572Z,11.34
2023-02-24T09:59:26.380Z,11.56
2023-02-24T10:02:04.342Z,11.65
2023-02-24T10:05:07.457Z,11.66
2023-02-24T10:07:44.102Z,11.64
2023-02-24T10:10:21.091Z,12.16
2023-02-24T10:12:53.563Z,12.09
2023-02-24T10:15:56.949Z,12.12
2023-02-24T10:18:31.889Z,12.01
2023-02-24T10:21:07.723Z,12.26
2023-02-24T10:23:56.812Z,12.63
2023-02-24T10:26:34.954Z,12.52
2023-02-24T10:29:22.712Z,11.95
2023-02-24T10:31:57.881Z,12.74
2023-02-24T10:34:32.005Z,12.65
2023-02-24T10:37:07.750Z,12.61
2023-02-24T10:39:35.944Z,12.47
2023-02-24T10:42:22.758Z,12.36
2023-02-24T10:45:02.317Z,12.33
2023-02-24T10:47:32.754Z,12.02
2023-02-24T10:50:05.373Z,12.38
2023-02-24T10:52:51.026Z,12.26
2023-02-24T10:55:39.420Z,11.83
2023-02-24T10:58:16.090Z,12.04
2023-02-24T11:01:12.701Z,12.38
2023-02-24T11:03:48.219Z,12.23
2023-02-24T11:06:42.516Z,12.41
2023-02-24T11:09:32.461Z,11.86
2023-02-24T11:12:24.250Z,11.92
2023-02-24T11:15:13.432Z,12.25
2023-02-24T11:17:51.022Z,12.07
2023-02-24T11:20:47.726Z,12.27
2023-02-24T11:23:21.696Z,12.43
2023-02-24T11:25:53.585Z,12.62
2023-02-24T11:28:49.668Z,12.82
2023-02-24T11:31:36.360Z,12.98
2023-02-24T11:34:10.413Z,13.37
2023-02-24T11:36:47.712Z,13.56
2023-02-24T11:39:33.630Z,13.66
2023-02-24T11:42:06.055Z,13.72
2023-02-24T11:44:42.583Z,13.79
2023-02-24T11:47:17.939Z,14.17
2023-02-24T11:49:50.723Z,14.02
2023-02-24T11:52:25.097Z,14.34
2023-02-24T11:54:57.957Z,14.56
2023-02-24T11:57:35.485Z,14.60
2023-02-24T12:00:13.505Z,14.58
2023-02-24T12:02:49.070Z,14.22
2023-02-24T12:05:21.180Z,14.22
2023-02-24T12:07:52.642Z,14.04
2023-02-24T12:10:26.244Z,13.99
2023-02-24T12:13:02.202Z,13.95
2023-02-24T12:15:34.237Z,13.58
2023-02-24T12:18:13.709Z,14.18
2023-02-24T12:20:46.910Z,14.08
2023-02-24T12:23:19.381Z,14.37
2023-02-24T12:26:06.981Z,14.18
2023-02-24T12:28:54.872Z,13.97
2023-02-24T12:31:32.268Z,13.96
2023-02-24T12:34:09.869Z,14.09
2023-02-24T12:36:55.333Z,14.27
2023-02-24T12:39:31.924Z,14.36
2023-02-24T12:42:13.657Z,14.58
2023-02-24T12:44:49.889Z,14.78
2023-02-24T12:47:26.584Z,14.85
2023-02-24T12:50:25.441Z,14.87
2023-02-24T12:53:07.596Z,14.91
2023-02-24T12:55:44.861Z,15.06
2023-02-24T12:58:19.201Z,15.35
2023-02-24T13:00:58.923Z,15.64
2023-02-24T13:03:41.288Z,15.98
2023-02-24T13:06:18.109Z,16.28
2023-02-24T13:08:56.520Z,16.31
2023-02-24T13:11:37.588Z,16.38
2023-02-24T13:14:16.247Z,16.58
2023-02-24T13:16:44.358Z,16.67
2023-02-24T13:19:21.954Z,16.47
2023-02-24T13:21:57.808Z,16.93
2023-02-24T13:24:27.673Z,17.26
2023-02-24T13:27:07.013Z,17.61
2023-02-24T13:29:47.154Z,17.90
2023-02-24T13:32:31.766Z,17.96
2023-02-24T13:35:02.571Z,17.41
2023-02-24T13:37:34.500Z,17.54
2023-02-24T13:40:13.752Z,17.72
2023-02-24T13:42:42.244Z,17.55
2023-02-24T13:45:21.853Z,17.65
2023-02-24T13:48:11.492Z,17.91
2023-02-24T13:50:53.364Z,18.24
2023-02-24T13:53:43.117Z,18.34
2023-02-24T13:56:36.893Z,18.28
2023-02-24T13:59:18.331Z,18.00
2023-02-24T14:01:51.334Z,18.90
2023-02-24T14:04:22.624Z,19.10
2023-02-24T14:06:54.392Z,19.24
2023-02-24T14:09:26.970Z,18.82
2023-02-24T14:12:01.055Z,19.62
2023-02-24T14:14:30.675Z,20.59
2023-02-24T14:17:00.356Z,21.78
2023-02-24T14:19:28.579Z,23.27
2023-02-24T14:21:58.538Z,24.77
2023-02-24T14:24:29.131Z,25.81
2023-02-24T14:26:59.078Z,26.63
2023-02-24T14:29:32.182Z,27.22
2023-02-24T14:32:02.651Z,26.49
2023-02-24T14:34:34.043Z,27.37
2023-02-24T14:37:05.313Z,26.32
2023-02-24T14:39:34.458Z,25.20
2023-02-24T14:42:13.364Z,24.49
2023-02-24T14:44:46.145Z,24.91
2023-02-24T14:47:18.471Z,25.19
2023-02-24T14:49:55.795Z,25.74
2023-02-24T14:52:32.945Z,26.96
2023-02-24T14:55:05.302Z,27.73
2023-02-24T14:57:37.299Z,26.80
2023-02-24T15:00:13.149Z,26.43
2023-02-24T15:02:47.738Z,26.56
2023-02-24T15:05:16.989Z,25.69
2023-02-24T15:07:46.357Z,24.72
2023-02-24T15:10:23.561Z,23.51
2023-02-24T15:12:55.642Z,22.07
2023-02-24T15:15:27.279Z,20.93
2023-02-24T15:18:00.374Z,19.94
2023-02-24T15:20:31.299Z,18.88
2023-02-24T15:22:59.981Z,18.60
2023-02-24T15:25:42.242Z,17.87
2023-02-24T15:28:24.506Z,17.14
2023-02-24T15:31:01.688Z,16.77
2023-02-24T15:33:36.277Z,16.08
2023-02-24T15:36:10.172Z,15.98
2023-02-24T15:38:41.372Z,15.72
2023-02-24T15:41:11.354Z,15.44
2023-02-24T15:43:46.441Z,14.84
2023-02-24T15:46:24.239Z,14.87
2023-02-24T15:48:55.619Z,14.62
2023-02-24T15:51:32.295Z,14.47
2023-02-24T15:54:02.357Z,14.29
2023-02-24T15:56:33.551Z,14.28
2023-02-24T15:59:02.696Z,14.13
2023-02-24T16:01:32.775Z,14.03
2023-02-24T16:04:04.774Z,13.93
2023-02-24T16:06:34.129Z,13.69
2023-02-24T16:09:05.356Z,13.90
2023-02-24T16:11:38.741Z,13.76
2023-02-24T16:14:07.102Z,13.55
2023-02-24T16:16:35.286Z,13.64
2023-02-24T16:19:04.739Z,13.49
2023-02-24T16:21:32.930Z,12.99
2023-02-24T16:24:01.108Z,13.25
2023-02-24T16:26:29.660Z,13.18
2023-02-24T16:28:59.446Z,13.06
2023-02-24T16:31:28.599Z,13.01
2023-02-24T16:33:58.646Z,12.91
2023-02-24T16:36:30.649Z,9.87
2023-02-24T16:38:59.331Z,11.61
2023-02-24T16:41:27.912Z,12.82
2023-02-24T16:43:56.425Z,12.71
2023-02-24T16:46:27.488Z,11.97
2023-02-24T16:48:56.075Z,12.00
2023-02-24T16:51:24.695Z,12.46
2023-02-24T16:53:54.643Z,12.27
2023-02-24T16:56:23.601Z,12.32
2023-02-24T16:58:52.108Z,12.37
2023-02-24T17:01:22.620Z,11.62
2023-02-24T17:03:54.078Z,12.22
2023-02-24T17:06:24.012Z,12.18
2023-02-24T17:08:54.384Z,11.83
2023-02-24T17:11:25.189Z,11.50
2023-02-24T17:13:53.607Z,12.11
2023-02-24T17:16:22.283Z,12.02
2023-02-24T17:18:50.708Z,11.74
2023-02-24T17:21:19.296Z,11.55
2023-02-24T17:23:47.530Z,11.70
2023-02-24T17:26:17.567Z,11.45
2023-02-24T17:28:45.909Z,11.56
2023-02-24T17:31:14.284Z,11.35
2023-02-24T17:33:44.862Z,11.45
2023-02-24T17:36:12.985Z,11.52
2023-02-24T17:38:41.221Z,11.54
2023-02-24T17:41:09.452Z,11.34
2023-02-24T17:43:39.174Z,11.68
2023-02-24T17:46:07.704Z,11.68
2023-02-24T17:48:36.425Z,11.32
2023-02-24T17:51:04.865Z,11.58
2023-02-24T17:53:33.150Z,10.88
2023-02-24T17:56:05.304Z,11.06
2023-02-24T17:58:34.624Z,11.40
2023-02-24T18:01:05.819Z,11.43
2023-02-24T18:03:35.166Z,11.23
2023-02-24T18:06:06.586Z,11.22
2023-02-24T18:08:35.950Z,11.20
2023-02-24T18:11:05.390Z,11.13
2023-02-24T18:13:33.939Z,11.18
2023-02-24T18:16:03.534Z,11.17
2023-02-24T18:18:31.862Z,11.16
2023-02-24T18:21:03.366Z,11.18
2023-02-24T18:23:31.737Z,11.03
2023-02-24T18:26:03.227Z,10.93
2023-02-24T18:28:32.080Z,11.14
2023-02-24T18:31:03.435Z,11.18
2023-02-24T18:33:33.266Z,11.21
2023-02-24T18:36:02.367Z,11.18
2023-02-24T18:38:30.723Z,11.17
2023-02-24T18:41:00.256Z,11.22
2023-02-24T18:43:28.539Z,11.20
2023-02-24T18:45:58.141Z,11.15
2023-02-24T18:48:26.535Z,11.29
2023-02-24T18:50:57.014Z,11.32
2023-02-24T18:53:27.110Z,11.29
2023-02-24T18:56:01.188Z,11.41
2023-02-24T18:58:29.420Z,11.25
2023-02-24T19:00:57.870Z,11.47
2023-02-24T19:03:26.636Z,11.16
2023-02-24T19:05:56.216Z,11.07
2023-02-24T19:08:24.736Z,11.28
2023-02-24T19:10:52.816Z,11.25
2023-02-24T19:13:21.012Z,11.16
2023-02-24T19:15:49.246Z,11.02
2023-02-24T19:18:17.813Z,10.93
2023-02-24T19:20:46.321Z,10.79
2023-02-24T19:23:15.945Z,11.00
2023-02-24T19:25:44.170Z,10.91
2023-02-24T19:28:12.428Z,10.42
2023-02-24T19:30:41.218Z,10.87
2023-02-24T19:33:09.935Z,10.57
2023-02-24T19:35:41.341Z,10.59
2023-02-24T19:38:09.994Z,10.56
2023-02-24T19:40:39.681Z,10.52
2023-02-24T19:43:08.037Z,10.63
2023-02-24T19:45:36.757Z,10.45
2023-02-24T19:48:05.218Z,10.52
2023-02-24T19:50:33.546Z,10.41
2023-02-24T19:53:01.804Z,10.26
2023-02-24T19:55:30.084Z,10.37
2023-02-24T19:57:59.880Z,10.38
2023-02-24T20:00:28.111Z,10.29
2023-02-24T20:02:56.285Z,10.43
2023-02-24T20:05:24.989Z,10.31
2023-02-24T20:07:53.312Z,10.38
2023-02-24T20:10:21.723Z,10.50
2023-02-24T20:12:50.175Z,10.32
2023-02-24T20:15:19.967Z,10.09
2023-02-24T20:17:49.817Z,10.00
2023-02-24T20:20:18.295Z,10.22
2023-02-24T20:22:46.450Z,10.26
2023-02-24T20:25:15.509Z,9.94
2023-02-24T20:27:43.852Z,10.01
2023-02-24T20:30:14.079Z,9.61
2023-02-24T20:32:43.933Z,10.05
2023-02-24T20:35:12.330Z,10.03
2023-02-24T20:37:40.771Z,9.69
2023-02-24T20:40:10.695Z,9.70
2023-02-24T20:42:39.567Z,9.24
2023-02-24T20:45:09.159Z,9.15
2023-02-24T20:47:37.351Z,9.19
2023-02-24T20:50:07.448Z,8.95
2023-02-24T20:52:37.734Z,9.19
2023-02-24T20:55:06.456Z,9.10
2023-02-24T20:57:34.715Z,8.88
2023-02-24T21:00:08.160Z,8.74
2023-02-24T21:02:36.820Z,8.83
2023-02-24T21:05:06.979Z,8.63
2023-02-24T21:07:37.073Z,8.48
2023-02-24T21:10:05.971Z,7.93
2023-02-24T21:12:34.158Z,5.71
2023-02-24T21:15:02.332Z,8.36
2023-02-24T21:17:30.793Z,8.32
2023-02-24T21:19:58.927Z,8.38
2023-02-24T21:22:31.351Z,8.42
2023-02-24T21:24:59.859Z,8.40
2023-02-24T21:27:28.035Z,8.60
2023-02-24T21:29:56.207Z,8.71
2023-02-24T21:32:24.744Z,9.05
2023-02-24T21:34:53.582Z,9.10
2023-02-24T21:37:21.932Z,9.28
2023-02-24T21:39:51.524Z,9.28
2023-02-24T21:42:19.725Z,9.37
2023-02-24T21:44:47.959Z,9.51
2023-02-24T21:47:16.158Z,9.41
2023-02-24T21:49:46.355Z,9.61
2023-02-24T21:52:14.840Z,9.66
2023-02-24T21:54:43.342Z,9.66
2023-02-24T21:57:12.975Z,9.63
2023-02-24T21:59:41.139Z,9.61
2023-02-24T22:02:13.165Z,9.75
2023-02-24T22:04:41.326Z,9.72
2023-02-24T22:07:09.375Z,9.60
2023-02-24T22:09:37.624Z,9.54
2023-02-24T22:12:06.770Z,9.65
2023-02-24T22:14:36.292Z,9.58
2023-02-24T22:17:04.505Z,9.66
2023-02-24T22:19:32.558Z,9.58
2023-02-24T22:22:00.838Z,9.43
2023-02-24T22:24:28.882Z,9.38
2023-02-24T22:26:56.965Z,9.51
2023-02-24T22:29:25.067Z,9.35
2023-02-24T22:31:54.764Z,9.21
2023-02-24T22:34:22.966Z,9.08
2023-02-24T22:36:51.150Z,8.18
2023-02-24T22:39:19.320Z,9.13
2023-02-24T22:41:47.934Z,9.05
2023-02-24T22:44:19.330Z,8.91
2023-02-24T22:46:47.603Z,8.70
2023-02-24T22:49:17.385Z,8.61
2023-02-24T22:51:45.710Z,8.42
2023-02-24T22:54:13.843Z,8.14
2023-02-24T22:56:42.057Z,8.00
2023-02-24T22:59:11.325Z,7.95
2023-02-24T23:01:40.242Z,7.39
2023-02-24T23:04:13.625Z,7.94
2023-02-24T23:06:44.561Z,7.74
2023-02-24T23:09:13.380Z,7.89
2023-02-24T23:11:42.848Z,7.91
2023-02-24T23:14:14.598Z,7.65
2023-02-24T23:16:44.652Z,7.80
2023-02-24T23:19:17.600Z,7.75
2023-02-24T23:21:49.804Z,7.78
2023-02-24T23:24:19.421Z,7.72
2023-02-24T23:26:49.383Z,7.67
2023-02-24T23:29:19.201Z,6.89
2023-02-24T23:31:47.759Z,7.50
2023-02-24T23:34:16.617Z,7.60
2023-02-24T23:36:47.747Z,7.57
2023-02-24T23:39:20.512Z,6.95
2023-02-24T23:41:49.513Z,7.48
2023-02-24T23:44:17.624Z,7.16
2023-02-24T23:46:46.694Z,7.30
2023-02-24T23:49:14.860Z,7.18
2023-02-24T23:51:48.384Z,7.26
2023-02-24T23:54:19.050Z,7.14
2023-02-24T23:56:47.462Z,7.09
2023-02-24T23:59:16.054Z,7.22
